Mendon, Utah
Current Conditions -  °F | °C
As of 3:51 AM on Sunday 26 Oct 2014 (Local Time) from KLGU Reporting Station
Overcast Overcast  
Wind Chill: 51°   Ceiling: 9000
Heat Index: 51°   Visibility: 10mi
Dew Point: 40°   Wind: 9mph
Humidity: 66%   Direction: 320°NW
Pressure: 29.98"   Gusts: NA
Location:  41.71°N, 111.98°W
Report Text: KLGU 260951Z AUTO 32008KT 10SM FEW055 SCT070 OVC090 11/04 A2998 RMK AO2 PK WND 02027/0855 RAE06 SLP111 P0000 T01060044 TSNO
Loading
Personal Weather Stations






























Interactive Weather Map
Tropical Storm Tracking
New forecast layout! Learn more

10-Day Weather Forecast

Advertisements
Track Severe Weather on mobile